Oakbrook, Washington
Current Conditions -  °F | °C
As of 1:58 AM on Tuesday 21 Oct 2014 (Local Time) from KTCM Reporting Station
Overcast Overcast  
Wind Chill: 52°   Ceiling: 6000
Heat Index: 52°   Visibility: 10mi
Dew Point: 51°   Wind: 6mph
Humidity: 99%   Direction: 160°SSE
Pressure: 29.82"   Gusts: NA
Location:  47.1809°N, 122.548°W
Report Text: KTCM 210858Z AUTO 16005KT 10SM FEW048 OVC060 11/11 A2982 RMK AO2 SLP102 T01100108 52006 $
Loading
Personal Weather Stations






























Interactive Weather Map New forecast layout! Learn more

10-Day Weather Forecast

Advertisements
Track Severe Weather on mobile